createdAt,value
2019-03-26T00:00:24.960Z,84.86
2019-03-26T00:02:51.084Z,84.76
2019-03-26T00:05:17.309Z,84.76
2019-03-26T00:07:43.467Z,84.60
2019-03-26T00:10:09.812Z,84.60
2019-03-26T00:12:35.943Z,84.56
2019-03-26T00:15:03.162Z,84.75
2019-03-26T00:17:29.440Z,84.85
2019-03-26T00:19:55.685Z,84.83
2019-03-26T00:22:21.937Z,84.81
2019-03-26T00:24:48.182Z,84.94
2019-03-26T00:27:14.531Z,84.90
2019-03-26T00:29:40.777Z,85.24
2019-03-26T00:32:06.971Z,85.03
2019-03-26T00:34:33.378Z,84.97
2019-03-26T00:36:59.616Z,85.14
2019-03-26T00:39:25.791Z,85.12
2019-03-26T00:41:52.004Z,85.26
2019-03-26T00:44:18.399Z,85.23
2019-03-26T00:46:44.653Z,85.00
2019-03-26T00:49:10.836Z,85.23
2019-03-26T00:51:37.044Z,85.18
2019-03-26T00:54:03.231Z,85.28
2019-03-26T00:56:29.392Z,85.25
2019-03-26T00:58:55.651Z,85.34
2019-03-26T01:01:21.795Z,85.20
2019-03-26T01:03:48.065Z,85.24
2019-03-26T01:06:14.374Z,85.41
2019-03-26T01:08:40.607Z,85.50
2019-03-26T01:11:06.820Z,85.43
2019-03-26T01:13:33.045Z,85.31
2019-03-26T01:15:59.155Z,85.34
2019-03-26T01:18:25.419Z,85.47
2019-03-26T01:20:51.655Z,85.52
2019-03-26T01:23:17.996Z,85.34
2019-03-26T01:25:44.135Z,85.23
2019-03-26T01:28:10.403Z,85.16
2019-03-26T01:30:36.578Z,85.24
2019-03-26T01:33:03.006Z,85.23
2019-03-26T01:35:29.187Z,85.44
2019-03-26T01:37:55.419Z,85.40
2019-03-26T01:40:21.518Z,85.15
2019-03-26T01:42:47.806Z,85.11
2019-03-26T01:45:14.164Z,85.14
2019-03-26T01:47:40.414Z,85.28
2019-03-26T01:50:07.222Z,85.28
2019-03-26T01:52:34.494Z,84.90
2019-03-26T01:55:00.693Z,84.94
2019-03-26T01:57:26.908Z,84.86
2019-03-26T01:59:53.086Z,84.99
2019-03-26T02:02:19.354Z,84.99
2019-03-26T02:04:58.879Z,84.91
2019-03-26T02:07:13.606Z,85.03
2019-03-26T02:09:39.780Z,85.11
2019-03-26T02:12:05.945Z,85.09
2019-03-26T02:14:32.111Z,85.13
2019-03-26T02:16:58.522Z,85.20
2019-03-26T02:19:24.700Z,85.30
2019-03-26T02:21:51.054Z,85.22
2019-03-26T02:24:17.159Z,85.16
2019-03-26T02:26:43.433Z,85.23
2019-03-26T02:29:09.548Z,85.39
2019-03-26T02:31:35.761Z,85.33
2019-03-26T02:34:01.892Z,85.39
2019-03-26T02:36:28.126Z,85.33
2019-03-26T02:38:54.392Z,85.23
2019-03-26T02:41:20.777Z,85.07
2019-03-26T02:43:47.136Z,85.11
2019-03-26T02:46:13.405Z,85.13
2019-03-26T02:48:39.547Z,85.01
2019-03-26T02:51:05.885Z,85.00
2019-03-26T02:53:32.194Z,84.86
2019-03-26T02:55:58.713Z,84.80
2019-03-26T02:58:24.911Z,84.55
2019-03-26T03:00:51.178Z,84.61
2019-03-26T03:03:17.582Z,84.59
2019-03-26T03:05:43.790Z,84.44
2019-03-26T03:08:10.047Z,84.55
2019-03-26T03:10:36.314Z,84.58
2019-03-26T03:13:02.763Z,84.51
2019-03-26T03:15:28.868Z,84.56
2019-03-26T03:17:55.356Z,84.59
2019-03-26T03:20:21.675Z,84.56
2019-03-26T03:22:47.914Z,84.57
2019-03-26T03:25:15.120Z,84.66
2019-03-26T03:27:41.453Z,84.63
2019-03-26T03:30:08.427Z,84.30
2019-03-26T03:32:34.707Z,84.32
2019-03-26T03:35:00.957Z,84.38
2019-03-26T03:37:27.268Z,84.54
2019-03-26T03:39:53.571Z,84.60
2019-03-26T03:42:19.940Z,84.46
2019-03-26T03:44:46.191Z,84.20
2019-03-26T03:47:13.508Z,84.30
2019-03-26T03:49:40.211Z,84.12
2019-03-26T03:52:07.623Z,84.06
2019-03-26T03:54:37.626Z,84.15
2019-03-26T03:57:05.339Z,84.21
2019-03-26T03:59:32.387Z,84.28
2019-03-26T04:01:58.829Z,84.24
2019-03-26T04:04:25.137Z,84.08
2019-03-26T04:06:51.440Z,84.06
2019-03-26T04:09:17.719Z,84.23
2019-03-26T04:11:45.341Z,84.34
2019-03-26T04:14:11.586Z,84.09
2019-03-26T04:16:37.870Z,84.28
2019-03-26T04:19:03.998Z,84.23
2019-03-26T04:21:30.274Z,84.29
2019-03-26T04:23:56.377Z,84.25
2019-03-26T04:26:22.614Z,84.26
2019-03-26T04:28:49.442Z,84.24
2019-03-26T04:31:15.851Z,84.21
2019-03-26T04:33:42.109Z,84.22
2019-03-26T04:36:24.214Z,84.17
2019-03-26T04:38:36.748Z,84.23
2019-03-26T04:41:03.073Z,84.20
2019-03-26T04:43:29.304Z,84.23
2019-03-26T04:45:56.477Z,84.24
2019-03-26T04:48:22.759Z,84.33
2019-03-26T04:50:48.924Z,84.43
2019-03-26T04:53:15.228Z,84.20
2019-03-26T04:55:41.548Z,84.21
2019-03-26T04:58:07.790Z,84.16
2019-03-26T05:00:33.953Z,84.24
2019-03-26T05:03:00.209Z,84.29
2019-03-26T05:05:26.478Z,84.34
2019-03-26T05:07:52.933Z,84.38
2019-03-26T05:10:19.115Z,84.35
2019-03-26T05:12:45.297Z,84.51
2019-03-26T05:15:11.581Z,84.39
2019-03-26T05:17:37.766Z,84.29
2019-03-26T05:20:05.963Z,84.53
2019-03-26T05:22:32.262Z,84.43
2019-03-26T05:24:58.673Z,84.50
2019-03-26T05:27:24.802Z,84.40
2019-03-26T05:29:52.136Z,84.16
2019-03-26T05:32:18.404Z,84.09
2019-03-26T05:34:44.615Z,84.17
2019-03-26T05:37:10.942Z,84.12
2019-03-26T05:39:37.600Z,84.37
2019-03-26T05:42:03.891Z,84.34
2019-03-26T05:44:30.147Z,84.14
2019-03-26T05:46:56.420Z,84.35
2019-03-26T05:49:23.011Z,84.20
2019-03-26T05:51:49.359Z,84.26
2019-03-26T05:54:15.514Z,83.92
2019-03-26T05:56:41.715Z,84.00
2019-03-26T05:59:07.822Z,83.99
2019-03-26T06:01:34.057Z,84.03
2019-03-26T06:04:00.166Z,83.96
2019-03-26T06:06:26.368Z,83.90
2019-03-26T06:08:52.456Z,83.87
2019-03-26T06:11:18.642Z,83.79
2019-03-26T06:13:44.813Z,83.88
2019-03-26T06:16:11.020Z,84.00
2019-03-26T06:18:37.271Z,83.80
2019-03-26T06:21:03.541Z,83.76
2019-03-26T06:23:29.754Z,83.73
2019-03-26T06:25:55.984Z,83.65
2019-03-26T06:28:22.066Z,83.72
2019-03-26T06:30:48.589Z,83.50
2019-03-26T06:33:14.742Z,83.49
2019-03-26T06:35:40.980Z,83.55
2019-03-26T06:38:07.067Z,83.39
2019-03-26T06:40:33.285Z,83.48
2019-03-26T06:42:59.450Z,83.34
2019-03-26T06:45:25.639Z,83.41
2019-03-26T06:47:51.801Z,83.42
2019-03-26T06:50:18.197Z,83.19
2019-03-26T06:52:44.477Z,83.14
2019-03-26T06:55:11.322Z,82.89
2019-03-26T06:57:40.409Z,82.92
2019-03-26T07:00:09.081Z,83.04
2019-03-26T07:02:35.731Z,82.89
2019-03-26T07:05:02.204Z,83.03
2019-03-26T07:07:31.692Z,83.01
2019-03-26T07:09:57.418Z,82.93
2019-03-26T07:12:23.573Z,82.94
2019-03-26T07:14:49.809Z,82.96
2019-03-26T07:17:15.936Z,82.92
2019-03-26T07:19:42.204Z,83.03
2019-03-26T07:22:08.522Z,83.04
2019-03-26T07:24:34.771Z,82.96
2019-03-26T07:27:01.057Z,82.90
2019-03-26T07:29:27.396Z,82.83
2019-03-26T07:31:53.483Z,82.74
2019-03-26T07:34:19.757Z,82.90
2019-03-26T07:36:45.863Z,82.97
2019-03-26T07:39:12.107Z,82.80
2019-03-26T07:41:38.585Z,82.78
2019-03-26T07:44:04.952Z,82.80
2019-03-26T07:46:31.111Z,82.77
2019-03-26T07:48:57.290Z,82.64
2019-03-26T07:51:23.454Z,82.73
2019-03-26T07:53:49.699Z,82.75
2019-03-26T07:56:15.826Z,82.57
2019-03-26T07:58:42.143Z,82.56
2019-03-26T08:01:10.090Z,82.53
2019-03-26T08:03:36.489Z,82.45
2019-03-26T08:06:02.808Z,82.00
2019-03-26T08:08:28.995Z,81.76
2019-03-26T08:10:55.257Z,81.84
2019-03-26T08:13:21.560Z,81.68
2019-03-26T08:15:47.846Z,81.81
2019-03-26T08:18:14.118Z,81.89
2019-03-26T08:20:40.251Z,82.05
2019-03-26T08:23:06.504Z,81.79
2019-03-26T08:25:34.010Z,81.32
2019-03-26T08:28:00.709Z,81.06
2019-03-26T08:30:26.816Z,80.76
2019-03-26T08:32:53.088Z,81.17
2019-03-26T08:35:19.196Z,81.12
2019-03-26T08:37:45.409Z,80.24
2019-03-26T08:40:11.816Z,79.83
2019-03-26T08:42:38.061Z,79.43
2019-03-26T08:45:06.588Z,79.72
2019-03-26T08:47:32.754Z,79.95
2019-03-26T08:49:59.211Z,80.22
2019-03-26T08:52:25.574Z,80.50
2019-03-26T08:54:51.970Z,80.57
2019-03-26T08:57:18.220Z,80.44
2019-03-26T08:59:44.457Z,80.31
2019-03-26T09:02:10.569Z,80.25
2019-03-26T09:04:37.907Z,80.05
2019-03-26T09:07:04.153Z,79.92
2019-03-26T09:09:30.441Z,80.05
2019-03-26T09:11:57.732Z,79.45
2019-03-26T09:14:24.225Z,78.98
2019-03-26T09:16:50.424Z,78.73
2019-03-26T09:19:16.673Z,78.73
2019-03-26T09:21:42.952Z,78.36
2019-03-26T09:24:09.184Z,78.35
2019-03-26T09:26:35.295Z,77.79
2019-03-26T09:29:01.539Z,77.76
2019-03-26T09:31:27.791Z,77.12
2019-03-26T09:33:54.062Z,76.74
2019-03-26T09:36:20.213Z,76.78
2019-03-26T09:38:46.423Z,76.82
2019-03-26T09:41:12.693Z,77.05
2019-03-26T09:43:38.866Z,77.09
2019-03-26T09:46:05.025Z,77.08
2019-03-26T09:48:31.251Z,76.95
2019-03-26T09:50:57.410Z,76.83
2019-03-26T09:53:23.745Z,76.75
2019-03-26T09:55:50.059Z,76.60
2019-03-26T09:58:16.319Z,76.19
2019-03-26T10:00:42.541Z,76.49
2019-03-26T10:03:08.967Z,76.93
2019-03-26T10:05:35.198Z,76.97
2019-03-26T10:08:01.542Z,77.18
2019-03-26T10:10:27.656Z,76.82
2019-03-26T10:12:53.987Z,76.99
2019-03-26T10:15:20.183Z,76.67
2019-03-26T10:17:46.373Z,76.17
2019-03-26T10:20:13.826Z,76.25
2019-03-26T10:22:40.256Z,76.52
2019-03-26T10:25:10.681Z,75.96
2019-03-26T10:27:35.474Z,76.14
2019-03-26T10:30:05.797Z,75.36
2019-03-26T10:32:31.891Z,76.04
2019-03-26T10:34:58.203Z,75.47
2019-03-26T10:37:24.779Z,75.80
2019-03-26T10:39:50.923Z,76.29
2019-03-26T10:42:17.169Z,76.69
2019-03-26T10:44:43.255Z,76.58
2019-03-26T10:47:09.533Z,76.36
2019-03-26T10:49:35.676Z,75.78
2019-03-26T10:52:02.006Z,74.48
2019-03-26T10:54:28.193Z,73.73
2019-03-26T10:56:54.362Z,73.04
2019-03-26T10:59:20.540Z,72.57
2019-03-26T11:01:46.942Z,71.65
2019-03-26T11:04:13.279Z,72.89
2019-03-26T11:06:39.878Z,72.50
2019-03-26T11:09:20.090Z,72.19
2019-03-26T11:11:34.433Z,72.01
2019-03-26T11:14:00.657Z,72.37
2019-03-26T11:16:27.081Z,71.72
2019-03-26T11:18:53.303Z,70.71
2019-03-26T11:21:19.419Z,69.98
2019-03-26T11:23:45.610Z,68.01
2019-03-26T11:26:11.930Z,68.04
2019-03-26T11:28:38.207Z,68.37
2019-03-26T11:31:04.748Z,67.41
2019-03-26T11:33:30.941Z,67.38
2019-03-26T11:35:57.195Z,66.56
2019-03-26T11:38:23.485Z,67.50
2019-03-26T11:40:49.821Z,68.22
2019-03-26T11:43:16.183Z,67.08
2019-03-26T11:45:42.551Z,66.95
2019-03-26T11:48:08.827Z,65.86
2019-03-26T11:50:35.047Z,64.31
2019-03-26T11:53:01.401Z,63.59
2019-03-26T11:55:27.554Z,61.94
2019-03-26T11:57:53.767Z,62.12
2019-03-26T12:00:22.453Z,61.82
2019-03-26T12:02:48.763Z,62.64
2019-03-26T12:05:15.420Z,62.06
2019-03-26T12:07:42.991Z,61.91
2019-03-26T12:10:09.879Z,62.36
2019-03-26T12:12:36.093Z,63.01
2019-03-26T12:15:04.823Z,63.20
2019-03-26T12:17:31.005Z,63.26
2019-03-26T12:19:57.305Z,63.39
2019-03-26T12:22:23.589Z,63.24
2019-03-26T12:24:49.832Z,62.91
2019-03-26T12:27:15.956Z,63.24
2019-03-26T12:29:42.190Z,63.68
2019-03-26T12:32:08.294Z,64.02
2019-03-26T12:34:34.519Z,64.19
2019-03-26T12:37:00.694Z,64.37
2019-03-26T12:39:26.989Z,64.12
2019-03-26T12:41:53.215Z,64.09
2019-03-26T12:44:19.309Z,64.46
2019-03-26T12:46:45.499Z,64.50
2019-03-26T12:49:11.729Z,63.75
2019-03-26T12:51:39.557Z,64.05
2019-03-26T12:54:05.926Z,64.17
2019-03-26T12:56:32.187Z,63.57
2019-03-26T12:58:58.568Z,63.30
2019-03-26T13:01:24.899Z,62.29
2019-03-26T13:03:51.216Z,62.79
2019-03-26T13:06:17.633Z,62.35
2019-03-26T13:08:43.768Z,61.84
2019-03-26T13:11:10.100Z,63.03
2019-03-26T13:13:36.411Z,63.63
2019-03-26T13:16:02.794Z,62.10
2019-03-26T13:21:28.341Z,57.24
2019-03-26T13:23:55.628Z,55.27
2019-03-26T13:26:21.806Z,54.53
2019-03-26T13:28:47.985Z,55.84
2019-03-26T13:31:14.427Z,54.88
2019-03-26T13:33:40.527Z,54.45
2019-03-26T13:36:06.931Z,53.09
2019-03-26T13:38:33.084Z,53.24
2019-03-26T13:40:59.512Z,52.72
2019-03-26T13:43:25.683Z,53.06
2019-03-26T13:45:51.875Z,53.15
2019-03-26T13:48:17.990Z,50.85
2019-03-26T13:50:44.179Z,49.40
2019-03-26T13:53:10.278Z,50.79
2019-03-26T13:55:36.573Z,50.86
2019-03-26T13:58:02.997Z,50.80
2019-03-26T14:00:35.411Z,50.19
2019-03-26T14:03:01.825Z,48.99
2019-03-26T14:05:28.300Z,49.79
2019-03-26T14:07:54.662Z,49.38
2019-03-26T14:10:20.861Z,49.81
2019-03-26T14:12:47.228Z,50.21
2019-03-26T14:15:13.334Z,50.50
2019-03-26T14:17:39.572Z,51.11
2019-03-26T14:20:05.771Z,51.15
2019-03-26T14:22:32.009Z,51.05
2019-03-26T14:24:58.220Z,50.87
2019-03-26T14:27:25.782Z,51.61
2019-03-26T14:29:51.949Z,51.79
2019-03-26T14:32:18.376Z,52.42
2019-03-26T14:34:48.172Z,53.14
2019-03-26T14:37:12.657Z,53.96
2019-03-26T14:39:40.377Z,54.08
2019-03-26T14:42:06.539Z,54.18
2019-03-26T14:44:32.811Z,54.36
2019-03-26T14:46:59.216Z,54.43
2019-03-26T14:49:25.432Z,54.69
2019-03-26T14:51:51.516Z,54.87
2019-03-26T14:54:17.723Z,54.73
2019-03-26T14:56:43.830Z,55.47
2019-03-26T14:59:10.056Z,55.96
2019-03-26T15:01:36.222Z,55.37
2019-03-26T15:04:02.742Z,55.59
2019-03-26T15:06:29.014Z,55.62
2019-03-26T15:08:55.295Z,56.30
2019-03-26T15:11:21.592Z,56.33
2019-03-26T15:13:49.445Z,56.44
2019-03-26T15:16:17.290Z,56.67
2019-03-26T15:18:43.472Z,57.06
2019-03-26T15:21:09.754Z,57.39
2019-03-26T15:23:35.930Z,57.42
2019-03-26T15:26:02.266Z,57.50
2019-03-26T15:28:28.368Z,57.54
2019-03-26T15:30:54.618Z,57.81
2019-03-26T15:33:20.728Z,57.73
2019-03-26T15:35:46.968Z,57.41
2019-03-26T15:38:13.088Z,58.07
2019-03-26T15:40:39.309Z,58.33
2019-03-26T15:43:05.470Z,58.45
2019-03-26T15:45:31.671Z,58.84
2019-03-26T15:47:57.860Z,58.86
2019-03-26T15:50:42.051Z,59.40
2019-03-26T15:53:08.551Z,59.59
2019-03-26T15:55:34.786Z,59.67
2019-03-26T15:58:00.997Z,60.25
2019-03-26T16:00:30.371Z,60.35
2019-03-26T16:02:57.492Z,60.55
2019-03-26T16:05:23.875Z,60.79
2019-03-26T16:07:50.100Z,61.03
2019-03-26T16:10:16.198Z,60.99
2019-03-26T16:12:42.384Z,61.46
2019-03-26T16:15:08.770Z,61.83
2019-03-26T16:17:36.101Z,62.18
2019-03-26T16:20:05.235Z,62.42
2019-03-26T16:22:31.550Z,62.56
2019-03-26T16:24:57.687Z,62.71
2019-03-26T16:27:24.024Z,62.96
2019-03-26T16:29:50.177Z,63.24
2019-03-26T16:32:16.459Z,63.32
2019-03-26T16:34:42.689Z,63.52
2019-03-26T16:37:08.806Z,63.78
2019-03-26T16:39:35.125Z,63.97
2019-03-26T16:42:01.359Z,64.28
2019-03-26T16:44:27.590Z,64.70
2019-03-26T16:46:53.709Z,64.67
2019-03-26T16:49:19.915Z,64.87
2019-03-26T16:51:46.040Z,64.95
2019-03-26T16:54:12.253Z,65.14
2019-03-26T16:56:38.362Z,65.57
2019-03-26T16:59:04.667Z,65.83
2019-03-26T17:01:30.836Z,65.85
2019-03-26T17:03:57.223Z,66.03
2019-03-26T17:06:23.542Z,66.21
2019-03-26T17:08:49.704Z,66.47
2019-03-26T17:11:16.969Z,66.83
2019-03-26T17:13:44.306Z,67.10
2019-03-26T17:16:10.563Z,67.53
2019-03-26T17:18:37.828Z,67.62
2019-03-26T17:21:04.075Z,67.84
2019-03-26T17:23:30.423Z,68.17
2019-03-26T17:25:56.612Z,68.71
2019-03-26T17:28:22.958Z,69.15
2019-03-26T17:30:49.286Z,69.57
2019-03-26T17:33:15.644Z,69.66
2019-03-26T17:35:41.857Z,69.88
2019-03-26T17:38:08.093Z,70.16
2019-03-26T17:40:34.369Z,70.32
2019-03-26T17:43:00.607Z,70.61
2019-03-26T17:45:26.729Z,70.87
2019-03-26T17:47:52.936Z,71.21
2019-03-26T17:50:20.319Z,71.21
2019-03-26T17:52:46.525Z,71.34
2019-03-26T17:55:12.744Z,71.50
2019-03-26T17:57:39.047Z,71.41
2019-03-26T18:00:08.943Z,71.66
2019-03-26T18:02:35.351Z,71.92
2019-03-26T18:05:02.018Z,72.26
2019-03-26T18:07:28.339Z,72.41
2019-03-26T18:09:54.690Z,72.72
2019-03-26T18:12:30.850Z,73.20
2019-03-26T18:14:49.340Z,73.69
2019-03-26T18:17:15.546Z,74.29
2019-03-26T18:19:41.794Z,74.68
2019-03-26T18:22:08.052Z,75.10
2019-03-26T18:24:34.388Z,75.59
2019-03-26T18:27:00.522Z,75.69
2019-03-26T18:29:26.837Z,76.58
2019-03-26T18:31:53.040Z,77.25
2019-03-26T18:34:19.269Z,77.83
2019-03-26T18:36:45.655Z,78.63
2019-03-26T18:39:12.046Z,79.35
2019-03-26T18:41:38.542Z,79.53
2019-03-26T18:44:04.758Z,80.05
2019-03-26T18:46:30.872Z,80.35
2019-03-26T18:48:57.167Z,80.44
2019-03-26T18:51:24.394Z,80.45
2019-03-26T18:53:50.696Z,80.50
2019-03-26T18:56:16.828Z,80.74
2019-03-26T18:58:43.190Z,80.84
2019-03-26T19:01:09.906Z,80.88
2019-03-26T19:03:36.227Z,80.91
2019-03-26T19:06:02.725Z,81.06
2019-03-26T19:08:28.822Z,81.10
2019-03-26T19:10:55.101Z,81.41
2019-03-26T19:13:21.203Z,81.70
2019-03-26T19:15:47.516Z,81.51
2019-03-26T19:18:13.678Z,81.70
2019-03-26T19:20:39.878Z,81.73
2019-03-26T19:23:06.107Z,81.84
2019-03-26T19:25:32.539Z,81.69
2019-03-26T19:27:58.894Z,81.55
2019-03-26T19:30:25.060Z,81.71
2019-03-26T19:32:51.313Z,81.71
2019-03-26T19:35:17.574Z,81.92
2019-03-26T19:37:43.812Z,82.17
2019-03-26T19:40:10.235Z,82.17
2019-03-26T19:42:36.464Z,82.15
2019-03-26T19:45:03.364Z,82.28
2019-03-26T19:47:29.581Z,82.36
2019-03-26T19:49:55.700Z,82.43
2019-03-26T19:52:21.927Z,82.61
2019-03-26T19:54:48.081Z,82.96
2019-03-26T19:57:14.322Z,83.34
2019-03-26T19:59:41.472Z,83.41
2019-03-26T20:02:07.785Z,83.94
2019-03-26T20:04:35.169Z,84.13
2019-03-26T20:07:01.423Z,84.35
2019-03-26T20:09:27.652Z,84.66
2019-03-26T20:11:53.744Z,84.94
2019-03-26T20:14:20.125Z,85.22
2019-03-26T20:16:46.305Z,85.46
2019-03-26T20:19:12.455Z,85.53
2019-03-26T20:21:38.608Z,85.61
2019-03-26T20:24:05.855Z,85.65
2019-03-26T20:26:32.386Z,85.90
2019-03-26T20:28:59.278Z,85.92
2019-03-26T20:31:25.615Z,85.87
2019-03-26T20:33:52.068Z,85.84
2019-03-26T20:36:19.311Z,85.93
2019-03-26T20:38:45.701Z,85.91
2019-03-26T20:41:12.008Z,86.06
2019-03-26T20:43:39.658Z,86.10
2019-03-26T20:46:05.920Z,86.13
2019-03-26T20:48:32.169Z,86.13
2019-03-26T20:50:58.592Z,86.17
2019-03-26T20:53:24.919Z,86.24
2019-03-26T20:55:54.580Z,86.27
2019-03-26T20:58:19.998Z,86.39
2019-03-26T21:00:46.550Z,86.44
2019-03-26T21:03:13.128Z,86.55
2019-03-26T21:05:39.505Z,86.56
2019-03-26T21:08:06.090Z,86.67
2019-03-26T21:10:32.556Z,86.77
2019-03-26T21:12:59.219Z,86.50
2019-03-26T21:15:25.538Z,86.34
2019-03-26T21:17:51.637Z,86.19
2019-03-26T21:20:17.969Z,86.33
2019-03-26T21:22:44.204Z,86.04
2019-03-26T21:25:10.740Z,86.24
2019-03-26T21:27:36.845Z,86.38
2019-03-26T21:30:11.615Z,86.25
2019-03-26T21:32:37.911Z,86.29
2019-03-26T21:35:05.297Z,86.75
2019-03-26T21:37:31.500Z,86.54
2019-03-26T21:39:57.762Z,86.57
2019-03-26T21:42:23.965Z,86.70
2019-03-26T21:44:50.137Z,86.65
2019-03-26T21:47:16.367Z,86.74
2019-03-26T21:49:42.536Z,86.75
2019-03-26T21:52:08.803Z,86.67
2019-03-26T21:54:35.035Z,86.68
2019-03-26T21:57:01.398Z,86.67
2019-03-26T21:59:28.862Z,86.69
2019-03-26T22:04:27.546Z,86.74
2019-03-26T22:06:53.702Z,86.57
2019-03-26T22:09:20.978Z,86.62
2019-03-26T22:11:50.178Z,86.68
2019-03-26T22:14:18.150Z,86.64
2019-03-26T22:16:43.560Z,86.62
2019-03-26T22:19:09.840Z,86.62
2019-03-26T22:21:36.215Z,86.66
2019-03-26T22:24:02.661Z,86.75
2019-03-26T22:26:28.812Z,86.75
2019-03-26T22:28:55.035Z,86.79
2019-03-26T22:31:21.193Z,86.88
2019-03-26T22:33:47.498Z,86.98
2019-03-26T22:36:13.777Z,87.09
2019-03-26T22:38:40.010Z,87.13
2019-03-26T22:41:06.117Z,87.28
2019-03-26T22:43:32.324Z,87.17
2019-03-26T22:45:58.493Z,87.13
2019-03-26T22:48:28.079Z,87.12
2019-03-26T22:50:54.324Z,87.15
2019-03-26T22:53:20.584Z,87.12
2019-03-26T22:55:46.733Z,86.95
2019-03-26T22:58:12.910Z,87.00
2019-03-26T23:00:39.261Z,87.05
2019-03-26T23:03:07.260Z,87.11
2019-03-26T23:05:33.676Z,87.24
2019-03-26T23:07:59.973Z,87.31
2019-03-26T23:10:26.189Z,87.29
2019-03-26T23:12:52.367Z,87.33
2019-03-26T23:15:21.924Z,87.42
2019-03-26T23:17:48.939Z,87.32
2019-03-26T23:20:15.185Z,87.30
2019-03-26T23:22:41.615Z,87.39
2019-03-26T23:25:09.130Z,87.33
2019-03-26T23:27:35.459Z,87.33
2019-03-26T23:30:04.057Z,87.32
2019-03-26T23:32:30.318Z,87.29
2019-03-26T23:34:56.582Z,87.17
2019-03-26T23:37:22.782Z,87.15
2019-03-26T23:39:48.936Z,87.04
2019-03-26T23:42:15.185Z,87.02
2019-03-26T23:44:41.386Z,87.18
2019-03-26T23:47:07.617Z,87.20
2019-03-26T23:49:34.890Z,87.35
2019-03-26T23:52:01.113Z,87.45
2019-03-26T23:54:27.355Z,87.40
2019-03-26T23:56:53.525Z,87.39
2019-03-26T23:59:19.683Z,87.20
